createdAt,value
2017-06-13T00:00:16.561Z,0
2017-06-13T00:01:16.784Z,0
2017-06-13T00:02:16.512Z,0
2017-06-13T00:03:16.500Z,0
2017-06-13T00:04:16.181Z,0
2017-06-13T00:05:16.465Z,0
2017-06-13T00:06:16.484Z,0
2017-06-13T00:07:16.417Z,0
2017-06-13T00:08:16.401Z,0
2017-06-13T00:09:16.682Z,0
2017-06-13T00:10:16.358Z,0
2017-06-13T00:11:16.332Z,0
2017-06-13T00:12:15.712Z,0
2017-06-13T00:13:16.297Z,0
2017-06-13T00:14:16.273Z,0
2017-06-13T00:15:16.254Z,0
2017-06-13T00:16:16.484Z,0
2017-06-13T00:17:16.210Z,0
2017-06-13T00:18:16.195Z,0
2017-06-13T00:19:16.232Z,0
2017-06-13T00:20:16.155Z,0
2017-06-13T00:21:15.832Z,0
2017-06-13T00:22:16.157Z,0
2017-06-13T00:23:16.081Z,0
2017-06-13T00:24:16.062Z,0
2017-06-13T00:25:16.103Z,0
2017-06-13T00:26:16.032Z,0
2017-06-13T00:27:16.056Z,0
2017-06-13T00:28:15.990Z,0
2017-06-13T00:29:15.970Z,0
2017-06-13T00:30:15.940Z,0
2017-06-13T00:31:15.933Z,0
2017-06-13T00:32:15.598Z,0
2017-06-13T00:33:16.139Z,0
2017-06-13T00:34:16.162Z,0
2017-06-13T00:35:15.547Z,0
2017-06-13T00:36:15.835Z,0
2017-06-13T00:37:15.802Z,0
2017-06-13T00:38:15.790Z,0
2017-06-13T00:39:15.760Z,0
2017-06-13T00:40:15.744Z,0
2017-06-13T00:41:15.727Z,0
2017-06-13T00:42:15.109Z,0
2017-06-13T00:43:15.690Z,0
2017-06-13T00:44:15.657Z,0
2017-06-13T00:45:15.652Z,0
2017-06-13T00:46:15.614Z,0
2017-06-13T00:47:15.599Z,0
2017-06-13T00:48:15.570Z,0
2017-06-13T00:49:15.811Z,0
2017-06-13T00:50:15.550Z,0
2017-06-13T00:51:15.526Z,0
2017-06-13T00:52:15.187Z,0
2017-06-13T00:53:15.477Z,0
2017-06-13T00:54:15.463Z,0
2017-06-13T00:55:15.208Z,0
2017-06-13T00:56:15.412Z,0
2017-06-13T00:57:15.388Z,0
2017-06-13T00:58:15.374Z,0
2017-06-13T00:59:15.397Z,0
2017-06-13T01:00:15.329Z,0
2017-06-13T01:01:15.006Z,0
2017-06-13T01:02:14.997Z,0
2017-06-13T01:03:15.287Z,0
2017-06-13T01:04:14.978Z,0
2017-06-13T01:05:14.930Z,0
2017-06-13T01:06:14.906Z,0
2017-06-13T01:07:14.903Z,0
2017-06-13T01:08:15.172Z,0
2017-06-13T01:09:15.161Z,0
2017-06-13T01:10:15.133Z,0
2017-06-13T01:11:15.098Z,0
2017-06-13T01:12:15.082Z,0
2017-06-13T01:13:14.816Z,0
2017-06-13T01:14:14.793Z,0
2017-06-13T01:15:15.030Z,0
2017-06-13T01:16:15.013Z,0
2017-06-13T01:17:14.984Z,0
2017-06-13T01:18:14.960Z,0
2017-06-13T01:19:14.638Z,0
2017-06-13T01:20:14.930Z,0
2017-06-13T01:21:15.155Z,0
2017-06-13T01:22:14.580Z,0
2017-06-13T01:23:14.560Z,0
2017-06-13T01:24:14.843Z,0
2017-06-13T01:25:14.815Z,0
2017-06-13T01:26:14.806Z,0
2017-06-13T01:27:14.775Z,0
2017-06-13T01:28:14.761Z,0
2017-06-13T01:29:14.437Z,0
2017-06-13T01:30:14.718Z,0
2017-06-13T01:31:14.694Z,0
2017-06-13T01:32:14.673Z,0
2017-06-13T01:33:14.658Z,0
2017-06-13T01:34:14.636Z,0
2017-06-13T01:35:14.621Z,0
2017-06-13T01:36:14.592Z,0
2017-06-13T01:37:14.299Z,0
2017-06-13T01:38:14.249Z,0
2017-06-13T01:39:14.527Z,0
2017-06-13T01:40:14.509Z,0
2017-06-13T01:41:14.216Z,0
2017-06-13T01:42:14.469Z,0
2017-06-13T01:43:14.440Z,0
2017-06-13T01:44:14.433Z,0
2017-06-13T01:45:14.109Z,0
2017-06-13T01:46:14.380Z,0
2017-06-13T01:47:14.366Z,0
2017-06-13T01:48:14.349Z,0
2017-06-13T01:49:14.377Z,0
2017-06-13T01:50:14.307Z,0
2017-06-13T01:51:14.322Z,0
2017-06-13T01:52:14.260Z,0
2017-06-13T01:53:14.252Z,0
2017-06-13T01:54:14.214Z,0
2017-06-13T01:55:14.204Z,0
2017-06-13T01:56:14.232Z,0
2017-06-13T01:57:14.220Z,0
2017-06-13T01:58:14.145Z,0
2017-06-13T01:59:14.118Z,0
2017-06-13T02:00:14.109Z,0
2017-06-13T02:01:14.138Z,0
2017-06-13T02:02:14.054Z,0
2017-06-13T02:03:14.042Z,0
2017-06-13T02:04:14.022Z,0
2017-06-13T02:05:14.011Z,0
2017-06-13T02:06:13.971Z,0
2017-06-13T02:07:13.961Z,0
2017-06-13T02:08:13.995Z,0
2017-06-13T02:09:13.614Z,0
2017-06-13T02:10:13.909Z,0
2017-06-13T02:11:13.872Z,0
2017-06-13T02:12:14.152Z,0
2017-06-13T02:13:13.752Z,0
2017-06-13T02:14:13.210Z,0
2017-06-13T02:15:13.492Z,0
2017-06-13T02:16:13.767Z,0
2017-06-13T02:17:13.768Z,0
2017-06-13T02:18:13.730Z,0
2017-06-13T02:19:13.719Z,0
2017-06-13T02:20:13.740Z,0
2017-06-13T02:21:13.667Z,0
2017-06-13T02:22:13.337Z,0
2017-06-13T02:23:13.625Z,0
2017-06-13T02:24:13.601Z,0
2017-06-13T02:25:13.595Z,0
2017-06-13T02:26:13.558Z,0
2017-06-13T02:27:13.543Z,0
2017-06-13T02:28:13.520Z,0
2017-06-13T02:29:13.507Z,0
2017-06-13T02:30:12.641Z,0
2017-06-13T02:31:13.457Z,0
2017-06-13T02:32:13.440Z,0
2017-06-13T02:33:13.424Z,0
2017-06-13T02:34:13.412Z,0
2017-06-13T02:35:13.072Z,0
2017-06-13T02:36:13.409Z,0
2017-06-13T02:37:13.086Z,0
2017-06-13T02:38:13.011Z,0
2017-06-13T02:39:12.997Z,0
2017-06-13T02:40:13.274Z,0
2017-06-13T02:41:13.311Z,0
2017-06-13T02:42:13.236Z,0
2017-06-13T02:43:12.615Z,0
2017-06-13T02:44:12.888Z,0
2017-06-13T02:45:13.168Z,0
2017-06-13T02:46:13.155Z,0
2017-06-13T02:47:13.132Z,0
2017-06-13T02:48:13.114Z,0
2017-06-13T02:49:13.091Z,0
2017-06-13T02:50:12.778Z,0
2017-06-13T02:51:13.056Z,0
2017-06-13T02:52:13.074Z,0
2017-06-13T02:53:13.008Z,0
2017-06-13T02:54:13.041Z,0
2017-06-13T02:55:13.025Z,0
2017-06-13T02:56:12.643Z,0
2017-06-13T02:57:12.928Z,0
2017-06-13T02:58:12.906Z,0
2017-06-13T02:59:12.636Z,0
2017-06-13T03:00:12.854Z,0
2017-06-13T03:01:12.845Z,0
2017-06-13T03:02:12.877Z,0
2017-06-13T03:03:12.802Z,0
2017-06-13T03:04:12.778Z,0
2017-06-13T03:05:12.814Z,0
2017-06-13T03:06:12.446Z,0
2017-06-13T03:07:12.711Z,0
2017-06-13T03:08:12.692Z,0
2017-06-13T03:09:12.682Z,0
2017-06-13T03:10:12.666Z,0
2017-06-13T03:11:12.682Z,5
2017-06-13T03:12:12.614Z,5
2017-06-13T03:13:12.305Z,0
2017-06-13T03:14:12.578Z,0
2017-06-13T03:15:12.554Z,0
2017-06-13T03:16:12.576Z,0
2017-06-13T03:17:12.511Z,0
2017-06-13T03:18:12.490Z,0
2017-06-13T03:19:12.187Z,0
2017-06-13T03:20:12.142Z,5
2017-06-13T03:21:12.431Z,5
2017-06-13T03:22:12.459Z,5
2017-06-13T03:23:12.392Z,5
2017-06-13T03:24:12.371Z,10
2017-06-13T03:25:12.394Z,10
2017-06-13T03:26:12.382Z,10
2017-06-13T03:27:12.299Z,15
2017-06-13T03:28:12.292Z,15
2017-06-13T03:29:12.315Z,15
2017-06-13T03:30:12.237Z,15
2017-06-13T03:31:12.234Z,15
2017-06-13T03:32:12.152Z,15
2017-06-13T03:33:12.185Z,15
2017-06-13T03:34:12.166Z,15
2017-06-13T03:35:12.144Z,15
2017-06-13T03:36:12.126Z,15
2017-06-13T03:37:11.803Z,15
2017-06-13T03:38:12.079Z,15
2017-06-13T03:39:12.055Z,15
2017-06-13T03:40:12.041Z,15
2017-06-13T03:41:12.268Z,20
2017-06-13T03:42:12.033Z,20
2017-06-13T03:43:11.986Z,25
2017-06-13T03:44:11.964Z,25
2017-06-13T03:45:11.934Z,25
2017-06-13T03:46:11.913Z,30
2017-06-13T03:47:11.893Z,30
2017-06-13T03:48:11.925Z,30
2017-06-13T03:49:11.854Z,35
2017-06-13T03:50:11.837Z,35
2017-06-13T03:51:11.818Z,40
2017-06-13T03:52:11.790Z,40
2017-06-13T03:53:11.811Z,40
2017-06-13T03:54:11.763Z,45
2017-06-13T03:55:11.733Z,45
2017-06-13T03:56:11.707Z,50
2017-06-13T03:57:11.687Z,55
2017-06-13T03:58:11.661Z,60
2017-06-13T03:59:11.652Z,65
2017-06-13T04:00:11.679Z,75
2017-06-13T04:01:11.617Z,75
2017-06-13T04:02:11.285Z,75
2017-06-13T04:03:11.565Z,75
2017-06-13T04:04:11.546Z,80
2017-06-13T04:05:11.529Z,80
2017-06-13T04:06:11.760Z,90
2017-06-13T04:07:11.492Z,100
2017-06-13T04:08:11.468Z,125
2017-06-13T04:09:11.438Z,160
2017-06-13T04:10:11.130Z,170
2017-06-13T04:11:11.460Z,195
2017-06-13T04:12:11.386Z,200
2017-06-13T04:13:11.355Z,200
2017-06-13T04:14:11.342Z,160
2017-06-13T04:15:11.326Z,205
2017-06-13T04:16:11.318Z,195
2017-06-13T04:17:11.293Z,215
2017-06-13T04:18:11.268Z,215
2017-06-13T04:19:10.944Z,175
2017-06-13T04:20:11.216Z,145
2017-06-13T04:21:11.217Z,140
2017-06-13T04:22:11.178Z,140
2017-06-13T04:23:11.169Z,130
2017-06-13T04:24:11.140Z,130
2017-06-13T04:25:11.126Z,130
2017-06-13T04:26:11.107Z,160
2017-06-13T04:27:11.090Z,235
2017-06-13T04:28:11.114Z,250
2017-06-13T04:29:11.056Z,260
2017-06-13T04:30:11.026Z,270
2017-06-13T04:31:11.063Z,270
2017-06-13T04:32:11.116Z,275
2017-06-13T04:33:10.971Z,275
2017-06-13T04:34:10.949Z,275
2017-06-13T04:35:11.006Z,290
2017-06-13T04:36:10.907Z,285
2017-06-13T04:37:10.887Z,275
2017-06-13T04:38:10.574Z,255
2017-06-13T04:39:10.857Z,190
2017-06-13T04:40:10.851Z,215
2017-06-13T04:41:11.076Z,200
2017-06-13T04:42:10.786Z,285
2017-06-13T04:43:10.820Z,300
2017-06-13T04:44:10.453Z,325
2017-06-13T04:45:10.738Z,330
2017-06-13T04:46:10.729Z,260
2017-06-13T04:47:10.718Z,330
2017-06-13T04:48:10.686Z,330
2017-06-13T04:49:10.714Z,330
2017-06-13T04:50:10.343Z,340
2017-06-13T04:51:10.037Z,340
2017-06-13T04:52:10.617Z,350
2017-06-13T04:53:10.590Z,355
2017-06-13T04:54:10.572Z,365
2017-06-13T04:55:10.576Z,370
2017-06-13T04:56:10.547Z,375
2017-06-13T04:57:10.518Z,380
2017-06-13T04:58:10.549Z,390
2017-06-13T04:59:10.181Z,400
2017-06-13T05:00:10.468Z,395
2017-06-13T05:01:10.523Z,395
2017-06-13T05:02:10.430Z,390
2017-06-13T05:03:10.424Z,390
2017-06-13T05:04:10.123Z,410
2017-06-13T05:05:10.378Z,425
2017-06-13T05:06:10.383Z,435
2017-06-13T05:07:10.396Z,430
2017-06-13T05:08:10.324Z,435
2017-06-13T05:09:10.337Z,445
2017-06-13T05:10:10.302Z,450
2017-06-13T05:11:10.291Z,455
2017-06-13T05:12:10.314Z,460
2017-06-13T05:13:10.296Z,460
2017-06-13T05:14:10.229Z,470
2017-06-13T05:15:09.912Z,475
2017-06-13T05:16:10.195Z,485
2017-06-13T05:17:10.187Z,495
2017-06-13T05:18:10.160Z,495
2017-06-13T05:19:10.144Z,495
2017-06-13T05:20:09.824Z,510
2017-06-13T05:21:10.103Z,510
2017-06-13T05:22:09.801Z,515
2017-06-13T05:23:10.073Z,520
2017-06-13T05:24:10.055Z,525
2017-06-13T05:25:10.042Z,530
2017-06-13T05:26:10.020Z,535
2017-06-13T05:27:10.011Z,540
2017-06-13T05:28:10.000Z,535
2017-06-13T05:29:09.678Z,525
2017-06-13T05:30:09.958Z,285
2017-06-13T05:31:09.644Z,555
2017-06-13T05:32:09.935Z,555
2017-06-13T05:33:09.930Z,565
2017-06-13T05:34:09.908Z,580
2017-06-13T05:35:09.936Z,590
2017-06-13T05:36:09.874Z,605
2017-06-13T05:37:09.253Z,640
2017-06-13T05:38:09.836Z,650
2017-06-13T05:39:09.823Z,685
2017-06-13T05:40:09.800Z,695
2017-06-13T05:41:09.493Z,700
2017-06-13T05:42:09.525Z,685
2017-06-13T05:43:09.755Z,355
2017-06-13T05:44:09.451Z,715
2017-06-13T05:45:09.734Z,725
2017-06-13T05:46:09.428Z,455
2017-06-13T05:47:09.405Z,760
2017-06-13T05:48:09.680Z,780
2017-06-13T05:49:09.663Z,775
2017-06-13T05:50:09.654Z,690
2017-06-13T05:51:09.644Z,765
2017-06-13T05:52:09.635Z,780
2017-06-13T05:53:09.669Z,785
2017-06-13T05:54:09.594Z,805
2017-06-13T05:55:09.582Z,840
2017-06-13T05:56:09.273Z,395
2017-06-13T05:57:09.554Z,900
2017-06-13T05:58:09.232Z,485
2017-06-13T05:59:09.576Z,515
2017-06-13T06:00:09.529Z,800
2017-06-13T06:01:09.181Z,715
2017-06-13T06:02:09.475Z,815
2017-06-13T06:03:09.162Z,890
2017-06-13T06:04:09.453Z,885
2017-06-13T06:05:09.435Z,840
2017-06-13T06:06:09.470Z,955
2017-06-13T06:07:09.446Z,825
2017-06-13T06:08:09.391Z,660
2017-06-13T06:09:09.123Z,360
2017-06-13T06:10:09.113Z,560
2017-06-13T06:11:09.348Z,370
2017-06-13T06:12:09.332Z,915
2017-06-13T06:13:09.315Z,975
2017-06-13T06:14:09.300Z,1005
2017-06-13T06:15:09.319Z,1050
2017-06-13T06:16:09.284Z,815
2017-06-13T06:17:09.287Z,1035
2017-06-13T06:18:09.242Z,1045
2017-06-13T06:19:09.232Z,1010
2017-06-13T06:20:09.223Z,980
2017-06-13T06:21:09.205Z,1030
2017-06-13T06:22:09.188Z,1040
2017-06-13T06:23:09.175Z,1055
2017-06-13T06:24:09.164Z,1085
2017-06-13T06:25:09.141Z,1040
2017-06-13T06:26:09.138Z,840
2017-06-13T06:27:09.165Z,530
2017-06-13T06:28:09.403Z,425
2017-06-13T06:29:09.084Z,480
2017-06-13T06:30:09.085Z,1070
2017-06-13T06:31:09.064Z,1015
2017-06-13T06:32:09.154Z,1045
2017-06-13T06:33:09.035Z,1135
2017-06-13T06:34:09.020Z,1065
2017-06-13T06:35:09.056Z,1130
2017-06-13T06:36:08.985Z,1125
2017-06-13T06:37:08.978Z,1135
2017-06-13T06:38:08.969Z,1165
2017-06-13T06:39:08.949Z,1165
2017-06-13T06:40:08.945Z,1160
2017-06-13T06:41:08.931Z,855
2017-06-13T06:42:08.926Z,1185
2017-06-13T06:43:08.897Z,1235
2017-06-13T06:44:08.884Z,1250
2017-06-13T06:45:08.574Z,1175
2017-06-13T06:46:08.867Z,335
2017-06-13T06:47:08.548Z,1240
2017-06-13T06:48:08.843Z,680
2017-06-13T06:49:08.829Z,420
2017-06-13T06:50:08.818Z,1285
2017-06-13T06:51:08.808Z,1305
2017-06-13T06:52:08.790Z,1335
2017-06-13T06:53:08.778Z,1290
2017-06-13T06:54:08.762Z,470
2017-06-13T06:55:08.754Z,1130
2017-06-13T06:56:08.736Z,495
2017-06-13T06:57:08.778Z,490
2017-06-13T06:58:08.717Z,865
2017-06-13T06:59:08.397Z,485
2017-06-13T07:00:08.686Z,435
2017-06-13T07:01:08.369Z,500
2017-06-13T07:02:08.676Z,460
2017-06-13T07:03:08.654Z,590
2017-06-13T07:04:08.331Z,450
2017-06-13T07:05:08.624Z,500
2017-06-13T07:06:08.924Z,655
2017-06-13T07:07:08.583Z,610
2017-06-13T07:08:08.621Z,1150
2017-06-13T07:09:08.561Z,435
2017-06-13T07:10:08.550Z,690
2017-06-13T07:11:08.243Z,1610
2017-06-13T07:12:08.505Z,1585
2017-06-13T07:13:08.487Z,1100
2017-06-13T07:14:08.499Z,1105
2017-06-13T07:15:08.462Z,1610
2017-06-13T07:16:08.455Z,1485
2017-06-13T07:17:08.130Z,510
2017-06-13T07:18:08.424Z,1510
2017-06-13T07:19:08.403Z,435
2017-06-13T07:20:08.442Z,515
2017-06-13T07:21:08.077Z,550
2017-06-13T07:22:08.366Z,625
2017-06-13T07:23:08.374Z,895
2017-06-13T07:24:08.333Z,1235
2017-06-13T07:25:08.330Z,1415
2017-06-13T07:26:08.319Z,1135
2017-06-13T07:27:08.292Z,480
2017-06-13T07:28:07.979Z,825
2017-06-13T07:29:07.959Z,1605
2017-06-13T07:30:22.856Z,860
2017-06-13T07:31:08.237Z,445
2017-06-13T07:32:08.242Z,1465
2017-06-13T07:33:08.319Z,945
2017-06-13T07:34:08.241Z,1370
2017-06-13T07:35:08.192Z,875
2017-06-13T07:36:07.577Z,555
2017-06-13T07:37:08.157Z,560
2017-06-13T07:38:07.846Z,540
2017-06-13T07:39:08.139Z,480
2017-06-13T07:40:08.105Z,405
2017-06-13T07:41:08.151Z,425
2017-06-13T07:42:08.088Z,380
2017-06-13T07:43:08.078Z,330
2017-06-13T07:44:08.402Z,290
2017-06-13T07:45:08.060Z,325
2017-06-13T07:46:08.021Z,460
2017-06-13T07:47:07.704Z,450
2017-06-13T07:48:07.996Z,410
2017-06-13T07:49:07.677Z,435
2017-06-13T07:50:07.706Z,480
2017-06-13T07:51:07.950Z,430
2017-06-13T07:52:07.941Z,445
2017-06-13T07:53:07.917Z,465
2017-06-13T07:54:07.897Z,435
2017-06-13T07:55:07.874Z,425
2017-06-13T07:56:07.870Z,605
2017-06-13T07:57:07.852Z,1455
2017-06-13T07:58:07.831Z,1915
2017-06-13T07:59:07.874Z,600
2017-06-13T08:00:07.802Z,515
2017-06-13T08:01:07.784Z,400
2017-06-13T08:02:07.824Z,310
2017-06-13T08:03:07.748Z,235
2017-06-13T08:04:07.743Z,195
2017-06-13T08:05:07.717Z,165
2017-06-13T08:06:07.700Z,180
2017-06-13T08:07:07.381Z,200
2017-06-13T08:08:07.662Z,205
2017-06-13T08:09:07.647Z,175
2017-06-13T08:10:07.636Z,165
2017-06-13T08:11:07.617Z,170
2017-06-13T08:12:07.617Z,180
2017-06-13T08:13:07.580Z,195
2017-06-13T08:14:07.559Z,210
2017-06-13T08:15:07.549Z,240
2017-06-13T08:16:07.831Z,275
2017-06-13T08:17:07.527Z,315
2017-06-13T08:18:07.487Z,350
2017-06-13T08:19:07.473Z,355
2017-06-13T08:20:07.469Z,385
2017-06-13T08:21:07.436Z,425
2017-06-13T08:22:07.432Z,485
2017-06-13T08:23:07.406Z,560
2017-06-13T08:24:07.390Z,645
2017-06-13T08:25:07.079Z,780
2017-06-13T08:26:07.345Z,935
2017-06-13T08:27:07.586Z,1165
2017-06-13T08:28:07.321Z,1295
2017-06-13T08:29:07.312Z,2090
2017-06-13T08:30:07.278Z,1300
2017-06-13T08:31:07.264Z,935
2017-06-13T08:32:07.249Z,930
2017-06-13T08:33:06.925Z,935
2017-06-13T08:34:07.234Z,1215
2017-06-13T08:35:07.212Z,835
2017-06-13T08:36:07.184Z,835
2017-06-13T08:37:07.178Z,820
2017-06-13T08:38:07.157Z,605
2017-06-13T08:39:07.143Z,495
2017-06-13T08:40:07.123Z,410
2017-06-13T08:41:06.801Z,365
2017-06-13T08:42:07.093Z,330
2017-06-13T08:43:07.073Z,300
2017-06-13T08:44:07.066Z,290
2017-06-13T08:45:07.045Z,275
2017-06-13T08:46:07.284Z,265
2017-06-13T08:47:07.014Z,270
2017-06-13T08:48:06.993Z,260
2017-06-13T08:49:06.984Z,240
2017-06-13T08:50:07.015Z,210
2017-06-13T08:51:06.956Z,205
2017-06-13T08:52:06.938Z,220
2017-06-13T08:53:06.971Z,240
2017-06-13T08:54:06.902Z,265
2017-06-13T08:55:06.884Z,320
2017-06-13T08:56:06.866Z,380
2017-06-13T08:57:06.851Z,440
2017-06-13T08:58:06.830Z,510
2017-06-13T08:59:06.811Z,540
2017-06-13T09:00:06.804Z,535
2017-06-13T09:01:06.784Z,500
2017-06-13T09:02:06.770Z,470
2017-06-13T09:03:06.745Z,455
2017-06-13T09:04:06.778Z,455
2017-06-13T09:05:06.712Z,470
2017-06-13T09:06:06.694Z,505
2017-06-13T09:07:06.680Z,525
2017-06-13T09:08:06.666Z,565
2017-06-13T09:09:06.637Z,615
2017-06-13T09:10:06.632Z,660
2017-06-13T09:11:06.659Z,715
2017-06-13T09:12:06.588Z,605
2017-06-13T09:13:06.631Z,630
2017-06-13T09:14:06.567Z,750
2017-06-13T09:15:06.550Z,690
2017-06-13T09:16:06.280Z,1040
2017-06-13T09:17:06.512Z,1000
2017-06-13T09:18:06.502Z,625
2017-06-13T09:19:06.175Z,445
2017-06-13T09:20:06.460Z,405
2017-06-13T09:21:06.435Z,405
2017-06-13T09:22:06.424Z,440
2017-06-13T09:23:06.457Z,465
2017-06-13T09:24:06.387Z,510
2017-06-13T09:25:06.375Z,580
2017-06-13T09:26:06.354Z,675
2017-06-13T09:27:06.344Z,760
2017-06-13T09:28:06.323Z,700
2017-06-13T09:29:06.317Z,695
2017-06-13T09:30:06.300Z,685
2017-06-13T09:31:06.272Z,680
2017-06-13T09:32:06.254Z,690
2017-06-13T09:33:06.239Z,710
2017-06-13T09:34:05.923Z,695
2017-06-13T09:35:06.212Z,675
2017-06-13T09:36:05.904Z,655
2017-06-13T09:37:06.226Z,655
2017-06-13T09:38:06.163Z,675
2017-06-13T09:39:06.148Z,695
2017-06-13T09:40:05.825Z,735
2017-06-13T09:41:06.109Z,740
2017-06-13T09:42:06.094Z,725
2017-06-13T09:43:05.774Z,705
2017-06-13T09:44:06.059Z,710
2017-06-13T09:45:06.098Z,725
2017-06-13T09:46:06.038Z,775
2017-06-13T09:47:06.018Z,795
2017-06-13T09:48:05.695Z,810
2017-06-13T09:49:05.985Z,840
2017-06-13T09:50:05.964Z,915
2017-06-13T09:51:05.943Z,1245
2017-06-13T09:52:05.955Z,980
2017-06-13T09:53:05.914Z,945
2017-06-13T09:54:05.909Z,1000
2017-06-13T09:55:05.891Z,1025
2017-06-13T09:56:05.571Z,1105
2017-06-13T09:57:05.853Z,1120
2017-06-13T09:58:05.838Z,905
2017-06-13T09:59:05.827Z,920
2017-06-13T10:00:05.827Z,915
2017-06-13T10:01:05.814Z,1045
2017-06-13T10:02:05.784Z,1140
2017-06-13T10:03:05.766Z,950
2017-06-13T10:04:05.748Z,825
2017-06-13T10:05:05.433Z,780
2017-06-13T10:06:05.720Z,840
2017-06-13T10:07:05.403Z,785
2017-06-13T10:08:05.702Z,790
2017-06-13T10:09:05.381Z,1040
2017-06-13T10:10:05.678Z,665
2017-06-13T10:11:05.683Z,530
2017-06-13T10:12:05.634Z,460
2017-06-13T10:13:05.623Z,435
2017-06-13T10:14:05.959Z,430
2017-06-13T10:15:05.587Z,455
2017-06-13T10:16:05.575Z,470
2017-06-13T10:17:05.251Z,490
2017-06-13T10:18:05.552Z,535
2017-06-13T10:19:05.535Z,585
2017-06-13T10:20:05.513Z,740
2017-06-13T10:21:05.496Z,1655
2017-06-13T10:22:05.478Z,1525
2017-06-13T10:23:05.458Z,855
2017-06-13T10:24:05.494Z,785
2017-06-13T10:25:05.437Z,875
2017-06-13T10:26:05.117Z,850
2017-06-13T10:27:05.408Z,690
2017-06-13T10:28:05.386Z,595
2017-06-13T10:29:05.373Z,525
2017-06-13T10:30:05.471Z,440
2017-06-13T10:31:05.340Z,365
2017-06-13T10:32:05.374Z,300
2017-06-13T10:33:05.300Z,250
2017-06-13T10:34:05.291Z,230
2017-06-13T10:35:05.277Z,200
2017-06-13T10:36:05.557Z,170
2017-06-13T10:37:05.252Z,170
2017-06-13T10:38:04.927Z,160
2017-06-13T10:39:05.217Z,140
2017-06-13T10:40:05.183Z,130
2017-06-13T10:41:05.228Z,145
2017-06-13T10:42:05.158Z,170
2017-06-13T10:43:05.149Z,200
2017-06-13T10:44:04.824Z,240
2017-06-13T10:45:05.107Z,270
2017-06-13T10:46:05.089Z,305
2017-06-13T10:47:05.078Z,340
2017-06-13T10:48:04.761Z,355
2017-06-13T10:49:05.046Z,375
2017-06-13T10:50:05.031Z,395
2017-06-13T10:51:05.013Z,430
2017-06-13T10:52:04.994Z,475
2017-06-13T10:53:04.983Z,515
2017-06-13T10:54:04.662Z,775
2017-06-13T10:55:04.936Z,645
2017-06-13T10:56:04.665Z,665
2017-06-13T10:57:04.908Z,700
2017-06-13T10:58:04.880Z,715
2017-06-13T10:59:04.574Z,1130
2017-06-13T11:00:04.858Z,1040
2017-06-13T11:01:04.849Z,710
2017-06-13T11:02:04.957Z,640
2017-06-13T11:03:05.097Z,555
2017-06-13T11:04:04.802Z,450
2017-06-13T11:05:04.460Z,365
2017-06-13T11:06:04.753Z,305
2017-06-13T11:07:04.728Z,275
2017-06-13T11:08:04.702Z,270
2017-06-13T11:09:04.706Z,275
2017-06-13T11:10:04.686Z,285
2017-06-13T11:11:04.667Z,305
2017-06-13T11:12:04.646Z,330
2017-06-13T11:13:04.633Z,360
2017-06-13T11:14:04.609Z,380
2017-06-13T11:15:04.402Z,400
2017-06-13T11:16:04.579Z,410
2017-06-13T11:17:04.566Z,430
2017-06-13T11:18:04.538Z,455
2017-06-13T11:19:04.535Z,475
2017-06-13T11:20:04.517Z,495
2017-06-13T11:21:04.483Z,515
2017-06-13T11:22:03.870Z,570
2017-06-13T11:23:04.171Z,625
2017-06-13T11:24:04.463Z,655
2017-06-13T11:25:04.433Z,640
2017-06-13T11:26:04.454Z,605
2017-06-13T11:27:04.093Z,565
2017-06-13T11:28:04.385Z,535
2017-06-13T11:29:04.363Z,510
2017-06-13T11:30:04.048Z,490
2017-06-13T11:31:04.332Z,470
2017-06-13T11:32:04.303Z,450
2017-06-13T11:33:04.340Z,420
2017-06-13T11:34:03.677Z,415
2017-06-13T11:35:04.272Z,420
2017-06-13T11:36:03.934Z,435
2017-06-13T11:37:04.215Z,450
2017-06-13T11:38:04.208Z,470
2017-06-13T11:39:04.185Z,485
2017-06-13T11:40:04.179Z,510
2017-06-13T11:41:04.154Z,525
2017-06-13T11:42:03.833Z,545
2017-06-13T11:43:03.812Z,575
2017-06-13T11:44:04.109Z,595
2017-06-13T11:45:04.080Z,610
2017-06-13T11:46:03.814Z,575
2017-06-13T11:47:04.051Z,560
2017-06-13T11:48:04.032Z,580
2017-06-13T11:49:04.067Z,560
2017-06-13T11:50:03.990Z,535
2017-06-13T11:51:04.032Z,520
2017-06-13T11:52:04.006Z,500
2017-06-13T11:53:03.966Z,480
2017-06-13T11:54:03.975Z,460
2017-06-13T11:55:03.969Z,445
2017-06-13T11:56:03.942Z,445
2017-06-13T11:57:03.890Z,440
2017-06-13T11:58:03.855Z,440
2017-06-13T11:59:03.841Z,470
2017-06-13T12:00:03.828Z,500
2017-06-13T12:01:03.826Z,530
2017-06-13T12:02:03.793Z,550
2017-06-13T12:03:03.467Z,545
2017-06-13T12:04:03.768Z,540
2017-06-13T12:05:03.757Z,540
2017-06-13T12:06:03.729Z,550
2017-06-13T12:07:03.456Z,570
2017-06-13T12:08:03.691Z,600
2017-06-13T12:09:03.378Z,630
2017-06-13T12:10:03.654Z,670
2017-06-13T12:11:03.646Z,730
2017-06-13T12:12:03.673Z,735
2017-06-13T12:13:03.612Z,755
2017-06-13T12:14:03.595Z,745
2017-06-13T12:15:03.581Z,750
2017-06-13T12:16:03.555Z,720
2017-06-13T12:17:03.270Z,690
2017-06-13T12:18:03.527Z,670
2017-06-13T12:19:03.517Z,670
2017-06-13T12:20:03.207Z,645
2017-06-13T12:21:03.590Z,630
2017-06-13T12:22:03.463Z,615
2017-06-13T12:23:03.449Z,585
2017-06-13T12:24:03.440Z,550
2017-06-13T12:25:03.426Z,530
2017-06-13T12:26:03.398Z,540
2017-06-13T12:27:03.397Z,555
2017-06-13T12:28:03.372Z,575
2017-06-13T12:29:03.058Z,575
2017-06-13T12:30:03.328Z,585
2017-06-13T12:31:03.362Z,585
2017-06-13T12:32:03.296Z,555
2017-06-13T12:33:03.276Z,525
2017-06-13T12:34:02.965Z,480
2017-06-13T12:35:03.249Z,450
2017-06-13T12:36:03.238Z,415
2017-06-13T12:37:03.238Z,380
2017-06-13T12:38:03.212Z,350
2017-06-13T12:39:03.195Z,315
2017-06-13T12:40:03.171Z,290
2017-06-13T12:41:03.160Z,270
2017-06-13T12:42:02.834Z,255
2017-06-13T12:43:02.821Z,255
2017-06-13T12:44:03.114Z,255
2017-06-13T12:45:03.081Z,250
2017-06-13T12:46:03.062Z,260
2017-06-13T12:47:03.304Z,255
2017-06-13T12:48:02.729Z,250
2017-06-13T12:49:03.019Z,265
2017-06-13T12:50:03.001Z,280
2017-06-13T12:51:02.983Z,295
2017-06-13T12:52:02.964Z,305
2017-06-13T12:53:03.217Z,320
2017-06-13T12:54:02.975Z,335
2017-06-13T12:55:02.909Z,355
2017-06-13T12:56:02.901Z,375
2017-06-13T12:57:02.872Z,400
2017-06-13T12:58:02.605Z,415
2017-06-13T12:59:02.887Z,420
2017-06-13T13:00:02.519Z,420
2017-06-13T13:01:02.799Z,405
2017-06-13T13:02:02.786Z,390
2017-06-13T13:03:02.778Z,375
2017-06-13T13:04:02.751Z,350
2017-06-13T13:05:02.444Z,330
2017-06-13T13:06:02.717Z,310
2017-06-13T13:07:03.003Z,285
2017-06-13T13:08:02.382Z,265
2017-06-13T13:09:02.664Z,245
2017-06-13T13:10:02.353Z,225
2017-06-13T13:11:02.719Z,205
2017-06-13T13:12:02.628Z,205
2017-06-13T13:13:02.302Z,215
2017-06-13T13:14:02.320Z,215
2017-06-13T13:15:02.546Z,215
2017-06-13T13:16:02.547Z,200
2017-06-13T13:17:02.569Z,185
2017-06-13T13:18:02.255Z,180
2017-06-13T13:19:02.488Z,195
2017-06-13T13:20:02.474Z,210
2017-06-13T13:21:02.445Z,225
2017-06-13T13:22:02.432Z,240
2017-06-13T13:23:02.121Z,265
2017-06-13T13:24:02.399Z,295
2017-06-13T13:25:02.392Z,335
2017-06-13T13:26:02.416Z,365
2017-06-13T13:27:02.041Z,375
2017-06-13T13:28:02.317Z,390
2017-06-13T13:29:02.299Z,395
2017-06-13T13:30:02.351Z,405
2017-06-13T13:31:02.276Z,415
2017-06-13T13:32:02.248Z,415
2017-06-13T13:33:02.246Z,410
2017-06-13T13:34:02.267Z,400
2017-06-13T13:35:02.190Z,385
2017-06-13T13:36:02.181Z,370
2017-06-13T13:37:02.195Z,370
2017-06-13T13:38:02.136Z,365
2017-06-13T13:39:01.919Z,365
2017-06-13T13:40:02.124Z,355
2017-06-13T13:41:02.081Z,345
2017-06-13T13:42:02.060Z,335
2017-06-13T13:43:01.748Z,320
2017-06-13T13:44:02.031Z,310
2017-06-13T13:45:02.020Z,300
2017-06-13T13:46:01.997Z,290
2017-06-13T13:47:01.983Z,280
2017-06-13T13:48:01.655Z,275
2017-06-13T13:49:01.993Z,270
2017-06-13T13:50:01.938Z,270
2017-06-13T13:51:01.960Z,260
2017-06-13T13:52:01.904Z,250
2017-06-13T13:53:01.899Z,240
2017-06-13T13:54:01.917Z,225
2017-06-13T13:55:01.838Z,215
2017-06-13T13:56:01.816Z,200
2017-06-13T13:57:01.807Z,185
2017-06-13T13:58:01.784Z,170
2017-06-13T13:59:01.759Z,160